Sauk Centre, MN

4:28 PM CDT on August 24, 2019 (GMT -0500)
Sauk Centre

Weather History for KD39 - July, 2019

Change the Weather History Date:

Monday, July 22, 2019

  Actual Average (WUND) Record (WUND)
Temperature  
Mean Temperature 64 °F -  
Max Temperature 75 °F - - (-1)
Min Temperature 53 °F - - (-1)
Degree Days  
Heating Degree Days 1    
Growing Degree Days 14 (Base 50)    
Moisture  
Dew Point 52 °F    
Average Humidity 64    
Maximum Humidity 94    
Minimum Humidity 40    
Precipitation  
Precipitation 0.00 in - - ()
Sea Level Pressure  
Sea Level Pressure 30.26 in    
Wind  
Wind Speed 5 mph (NNW)    
Max Wind Speed 14 mph    
Max Gust Speed 20 mph    
Visibility 10 miles    
Events      
Averages and records for this station are not official NWS values.
T = Trace of Precipitation, MM = Missing Value Source: NWS Daily Summary

Daily Weather History Graph

Daily Weather History Graph

Search for Another Location

Airport or City:

Astronomy

Jul. 22, 2019 Rise Set
Actual Time 5:51 AM CDT 9:00 PM CDT
Civil Twilight 5:15 AM CDT 9:35 PM CDT
Nautical Twilight 4:29 AM CDT 10:21 PM CDT
Astronomical Twilight 3:32 AM CDT 11:17 PM CDT
Moon No Moon Rise 11:23 AM CDT (7/22)
Length of Visible Light 16h 19m
Length of Day
15h 08m
Waning Gibbous, 72% of the Moon is Illuminated
Jul 22
Waning Gibbous
Jul 24
Last Quarter
Jul 31
New
Aug 7
First Quarter
Aug 15
Full

Hourly Weather History & Observations

Time (CDT) Temp. Dew Point Humidity Pressure Visibility Wind Dir Wind Speed Gust Speed Precip Events Conditions
12:15 AM 57.6 °F 55.6 °F 93% 30.20 in 10.0 mi Calm Calm - N/A   Scattered Clouds
12:35 AM 57.2 °F 55.4 °F 94% 30.21 in 10.0 mi Calm Calm - N/A   Clear
12:55 AM 57.4 °F 54.9 °F 91% 30.21 in 10.0 mi Calm Calm - N/A   Clear
12:56 AM 57.4 °F 54.9 °F 91% 30.21 in 10.0 mi Calm Calm - N/A   Clear
1:15 AM 57.6 °F 55.4 °F 92% 30.21 in 10.0 mi Calm Calm - N/A   Clear
1:18 AM 57.6 °F 55.4 °F 92% 30.21 in 10.0 mi Calm Calm - N/A   Clear
1:39 AM 56.3 °F 54.5 °F 94% 30.21 in 10.0 mi Calm Calm - N/A   Clear
1:56 AM 56.7 °F 54.5 °F 92% 30.21 in 10.0 mi NNW 4.6 mph - N/A   Clear
2:35 AM 58.3 °F 53.4 °F 84% 30.22 in 10.0 mi NNW 5.8 mph - N/A   Clear
2:36 AM 58.5 °F 53.6 °F 84% 30.22 in 10.0 mi NNW 5.8 mph - N/A   Clear
2:55 AM 57.6 °F 54.0 °F 88% 30.22 in 10.0 mi NNW 5.8 mph - N/A   Clear
3:18 AM 56.5 °F 51.8 °F 84% 30.22 in 10.0 mi NNW 5.8 mph - N/A   Clear
3:37 AM 55.9 °F 51.6 °F 85% 30.23 in 10.0 mi North 4.6 mph - N/A   Clear
3:56 AM 55.4 °F 50.9 °F 85% 30.23 in 10.0 mi North 4.6 mph - N/A   Clear
4:15 AM 55.0 °F 50.9 °F 86% 30.23 in 10.0 mi North 4.6 mph - N/A   Clear
4:16 AM 55.0 °F 50.9 °F 86% 30.23 in 10.0 mi North 4.6 mph - N/A   Clear
4:35 AM 54.7 °F 50.2 °F 85% 30.24 in 10.0 mi North 5.8 mph - N/A   Clear
4:39 AM 54.5 °F 50.2 °F 85% 30.24 in 10.0 mi North 5.8 mph - N/A   Clear
4:57 AM 54.0 °F 50.0 °F 86% 30.24 in 10.0 mi North 4.6 mph - N/A   Clear
5:15 AM 53.6 °F 50.0 °F 88% 30.25 in 10.0 mi North 4.6 mph - N/A   Clear
5:35 AM 53.8 °F 50.4 °F 88% 30.25 in 10.0 mi North 3.5 mph - N/A   Clear
5:36 AM 53.8 °F 50.4 °F 88% 30.25 in 10.0 mi North 3.5 mph - N/A   Clear
5:55 AM 53.6 °F 50.0 °F 88% 30.26 in 10.0 mi North 4.6 mph - N/A   Clear
5:56 AM 53.6 °F 50.0 °F 88% 30.26 in 10.0 mi NNW 4.6 mph - N/A   Clear
6:18 AM 53.1 °F 50.0 °F 89% 30.26 in 10.0 mi NNW 3.5 mph - N/A   Clear
6:37 AM 53.2 °F 50.0 °F 89% 30.27 in 10.0 mi NNW 3.5 mph - N/A   Clear
6:56 AM 53.8 °F 50.2 °F 88% 30.27 in 10.0 mi Calm Calm - N/A   Clear
7:15 AM 54.9 °F 51.4 °F 88% 30.27 in 10.0 mi Calm Calm - N/A   Clear
7:16 AM 55.0 °F 51.6 °F 88% 30.27 in 10.0 mi Calm Calm - N/A   Clear
7:35 AM 57.7 °F 50.9 °F 78% 30.27 in 10.0 mi North 3.5 mph - N/A   Clear
7:36 AM 57.7 °F 50.9 °F 78% 30.27 in 10.0 mi NNW 3.5 mph - N/A   Clear
7:58 AM 59.4 °F 50.7 °F 73% 30.28 in 10.0 mi North 4.6 mph - N/A   Clear
8:17 AM 61.2 °F 50.5 °F 68% 30.28 in 10.0 mi North 5.8 mph - N/A   Clear
8:36 AM 62.4 °F 51.1 °F 66% 30.29 in 10.0 mi NNW 5.8 mph - N/A   Clear
8:55 AM 63.9 °F 51.6 °F 64% 30.29 in 10.0 mi North 5.8 mph - N/A   Clear
9:15 AM 65.5 °F 52.3 °F 62% 30.29 in 10.0 mi North 9.2 mph - N/A   Clear
9:19 AM 65.7 °F 52.3 °F 62% 30.29 in 10.0 mi North 9.2 mph - N/A   Clear
9:38 AM 66.7 °F 51.6 °F 58% 30.29 in 10.0 mi North 8.1 mph - N/A   Clear
9:55 AM 68.0 °F 52.2 °F 57% 30.29 in 10.0 mi NNW 9.2 mph - N/A   Clear
10:15 AM 68.5 °F 51.6 °F 55% 30.29 in 10.0 mi NNW 9.2 mph - N/A   Clear
10:16 AM 68.7 °F 51.4 °F 54% 30.29 in 10.0 mi NNW 9.2 mph - N/A   Clear
10:35 AM 69.4 °F 51.1 °F 52% 30.29 in 10.0 mi North 9.2 mph - N/A   Clear
10:36 AM 69.4 °F 51.1 °F 52% 30.29 in 10.0 mi North 9.2 mph - N/A   Clear
10:55 AM 70.2 °F 51.1 °F 51% 30.29 in 10.0 mi NNW 10.4 mph - N/A   Clear
10:59 AM 70.5 °F 50.5 °F 49% 30.29 in 10.0 mi North 10.4 mph - N/A   Clear
11:17 AM 70.7 °F 50.4 °F 48% 30.29 in 10.0 mi NNE 6.9 mph - N/A   Clear
11:35 AM 71.8 °F 50.0 °F 46% 30.30 in 10.0 mi NNW 8.1 mph - N/A   Clear
11:56 AM 72.0 °F 47.8 °F 42% 30.29 in 10.0 mi North 10.4 mph 17.3 mph N/A   Scattered Clouds
12:15 PM 72.0 °F 48.0 °F 43% 30.29 in 10.0 mi NNW 12.7 mph 17.3 mph N/A   Mostly Cloudy
12:16 PM 72.1 °F 48.0 °F 42% 30.29 in 10.0 mi NNW 10.4 mph 17.3 mph N/A   Mostly Cloudy
12:35 PM 72.9 °F 48.0 °F 41% 30.29 in 10.0 mi NNW 8.1 mph - N/A   Mostly Cloudy
12:36 PM 72.7 °F 47.8 °F 41% 30.29 in 10.0 mi NNW 8.1 mph - N/A   Mostly Cloudy
12:55 PM 72.1 °F 48.2 °F 43% 30.29 in 10.0 mi NNW 10.4 mph - N/A   Mostly Cloudy
12:59 PM 73.2 °F 48.4 °F 41% 30.29 in 10.0 mi North 10.4 mph 16.1 mph N/A   Mostly Cloudy
1:18 PM 72.3 °F 47.5 °F 41% 30.29 in 10.0 mi NW 5.8 mph 9.2 mph N/A   Mostly Cloudy
1:36 PM 74.5 °F 49.5 °F 41% 30.29 in 10.0 mi WNW 11.5 mph 17.3 mph N/A   Scattered Clouds
1:56 PM 73.9 °F 48.4 °F 40% 30.28 in 10.0 mi North 4.6 mph 17.3 mph N/A   Scattered Clouds
2:15 PM 72.5 °F 49.6 °F 44% 30.28 in 10.0 mi NNW 8.1 mph - N/A   Mostly Cloudy
2:16 PM 72.7 °F 49.5 °F 44% 30.28 in 10.0 mi NNW 6.9 mph - N/A   Mostly Cloudy
2:35 PM 74.5 °F 49.5 °F 41% 30.27 in 10.0 mi WNW 9.2 mph - N/A   Scattered Clouds
2:36 PM 74.3 °F 49.5 °F 41% 30.27 in 10.0 mi NW 11.5 mph 17.3 mph N/A   Scattered Clouds
2:55 PM 74.7 °F 49.5 °F 41% 30.27 in 10.0 mi NW 10.4 mph - N/A   Scattered Clouds
2:59 PM 74.7 °F 49.3 °F 41% 30.27 in 10.0 mi NW 8.1 mph - N/A   Scattered Clouds
3:17 PM 74.5 °F 50.0 °F 42% 30.27 in 10.0 mi WNW 8.1 mph 17.3 mph N/A   Scattered Clouds
3:36 PM 75.2 °F 50.0 °F 41% 30.26 in 10.0 mi NW 13.8 mph 19.6 mph N/A   Scattered Clouds
3:55 PM 75.4 °F 50.2 °F 41% 30.26 in 10.0 mi NNW 8.1 mph - N/A   Scattered Clouds
3:56 PM 75.4 °F 49.8 °F 41% 30.26 in 10.0 mi NNW 6.9 mph - N/A   Scattered Clouds
4:15 PM 75.0 °F 49.3 °F 40% 30.26 in 10.0 mi NW 11.5 mph - N/A   Scattered Clouds
4:20 PM 75.0 °F 50.7 °F 42% 30.26 in 10.0 mi NW 12.7 mph - N/A   Scattered Clouds
4:38 PM 74.5 °F 50.7 °F 43% 30.25 in 10.0 mi NW 10.4 mph - N/A   Mostly Cloudy
4:56 PM 75.2 °F 51.1 °F 43% 30.25 in 10.0 mi NW 10.4 mph 18.4 mph N/A   Scattered Clouds
5:21 PM 75.6 °F 50.4 °F 41% 30.24 in 10.0 mi WNW 8.1 mph - N/A   Scattered Clouds
5:38 PM 75.4 °F 52.9 °F 45% 30.24 in 10.0 mi WNW 10.4 mph - N/A   Scattered Clouds
5:56 PM 75.2 °F 51.4 °F 43% 30.24 in 10.0 mi WNW 9.2 mph - N/A   Scattered Clouds
6:16 PM 74.8 °F 52.3 °F 45% 30.23 in 10.0 mi NW 11.5 mph - N/A   Scattered Clouds
6:35 PM 74.5 °F 51.4 °F 44% 30.23 in 10.0 mi WNW 8.1 mph - N/A   Scattered Clouds
6:36 PM 74.5 °F 51.6 °F 45% 30.23 in 10.0 mi WNW 6.9 mph - N/A   Scattered Clouds
6:55 PM 74.3 °F 52.3 °F 46% 30.23 in 10.0 mi NW 10.4 mph - N/A   Scattered Clouds
6:59 PM 74.3 °F 52.7 °F 47% 30.23 in 10.0 mi WNW 10.4 mph - N/A   Scattered Clouds
7:18 PM 73.6 °F 52.7 °F 48% 30.23 in 10.0 mi WNW 8.1 mph - N/A   Clear
7:35 PM 73.4 °F 53.1 °F 49% 30.23 in 10.0 mi NW 8.1 mph - N/A   Clear
7:55 PM 72.5 °F 53.2 °F 51% 30.23 in 10.0 mi NW 9.2 mph - N/A   Clear
8:15 PM 71.6 °F 53.6 °F 53% 30.23 in 10.0 mi NW 6.9 mph - N/A   Clear
8:19 PM 71.2 °F 53.8 °F 54% 30.23 in 10.0 mi WNW 5.8 mph - N/A   Clear
8:38 PM 69.1 °F 55.4 °F 62% 30.24 in 10.0 mi WNW 3.5 mph - N/A   Clear
8:55 PM 68.0 °F 55.4 °F 64% 30.24 in 10.0 mi NW 4.6 mph - N/A   Clear
9:15 PM 66.4 °F 54.5 °F 66% 30.24 in 10.0 mi NW 5.8 mph - N/A   Clear
9:16 PM 66.4 °F 54.5 °F 66% 30.24 in 10.0 mi NW 5.8 mph - N/A   Clear
9:35 PM 66.0 °F 54.5 °F 66% 30.24 in 10.0 mi WNW 4.6 mph - N/A   Clear
9:36 PM 65.8 °F 54.5 °F 67% 30.24 in 10.0 mi WNW 4.6 mph - N/A   Clear
9:58 PM 64.8 °F 54.5 °F 69% 30.24 in 10.0 mi NW 3.5 mph - N/A   Clear
10:16 PM 63.0 °F 54.7 °F 74% 30.25 in 10.0 mi Calm Calm - N/A   Clear
10:35 PM 61.7 °F 55.0 °F 79% 30.25 in 10.0 mi Calm Calm - N/A   Clear
10:36 PM 61.7 °F 55.0 °F 79% 30.25 in 10.0 mi Calm Calm - N/A   Clear
10:56 PM 60.3 °F 54.5 °F 81% 30.25 in 10.0 mi West 3.5 mph - N/A   Clear
11:15 PM 57.4 °F 54.1 °F 89% 30.25 in 10.0 mi Calm Calm - N/A   Clear
11:20 PM 57.2 °F 54.3 °F 90% 30.25 in 10.0 mi Calm Calm - N/A   Clear
11:37 PM 57.9 °F 54.3 °F 88% 30.25 in 10.0 mi Calm Calm - N/A   Clear
11:55 PM 57.6 °F 54.0 °F 88% 30.26 in 10.0 mi Calm Calm - N/A   Clear